Time;durP1;ratioP1;P1;durP2;ratioP2;P2;SDS_P1;SDS_P2;PMS_P1;PMS_P2;Temp;Humidity;BMP_temperature;BMP_pressure;BME280_temperature;BME280_humidity;BME280_pressure;Samples;Min_cycle;Max_cycle;Signal;HPM_P1;HPM_P2
2021/07/27 00:01:59;;;;;;;11.55;9.03;;;;;;;18.12;82.95;95899.09;1734304;82;21095;-60
2021/07/27 00:04:33;;;;;;;10.40;7.50;;;;;;;18.08;82.93;95909.49;1769986;81;21489;-60
2021/07/27 00:07:00;;;;;;;13.75;9.38;;;;;;;18.05;82.62;95899.42;1770790;81;21153;-60
2021/07/27 00:09:26;;;;;;;17.52;9.15;;;;;;;18.00;82.35;95898.28;1814664;79;21013;-60
2021/07/27 00:11:53;;;;;;;16.40;8.95;;;;;;;18.08;82.91;95901.95;1815560;79;20992;-61
2021/07/27 00:14:20;;;;;;;14.10;8.48;;;;;;;18.07;82.85;95901.09;1820146;79;21150;-60
2021/07/27 00:16:46;;;;;;;18.62;9.45;;;;;;;18.04;82.90;95895.89;1820412;79;21012;-60
2021/07/27 00:19:12;;;;;;;15.55;8.15;;;;;;;17.99;82.80;95896.52;1820162;79;21012;-60
2021/07/27 00:21:39;;;;;;;15.35;8.38;;;;;;;17.92;82.78;95887.94;1820400;79;21107;-60
2021/07/27 00:24:05;;;;;;;12.68;8.40;;;;;;;17.94;82.29;95885.17;1820041;79;21562;-60
2021/07/27 00:26:32;;;;;;;13.30;7.72;;;;;;;17.93;82.35;95884.79;1820782;79;21000;-60
2021/07/27 00:28:59;;;;;;;19.30;7.80;;;;;;;17.93;82.07;95888.32;1820076;79;21633;-60
2021/07/27 00:31:27;;;;;;;11.65;7.20;;;;;;;17.94;82.49;95894.52;1797950;79;21008;-60
2021/07/27 00:33:54;;;;;;;14.73;8.40;;;;;;;17.94;82.49;95894.52;1820156;78;21100;-60
2021/07/27 00:36:20;;;;;;;12.00;7.40;;;;;;;17.92;82.25;95895.08;1820872;78;20988;-60
2021/07/27 00:38:47;;;;;;;14.28;6.97;;;;;;;17.93;82.47;95901.67;1820156;79;21095;-60
2021/07/27 00:41:14;;;;;;;12.30;7.40;;;;;;;17.94;82.29;95902.53;1820853;78;21008;-60
2021/07/27 00:43:40;;;;;;;11.08;7.37;;;;;;;17.92;81.93;95897.27;1820467;79;21028;-60
2021/07/27 00:46:07;;;;;;;15.08;8.60;;;;;;;17.87;82.20;95899.75;1820255;79;21043;-60
2021/07/27 00:48:33;;;;;;;14.35;6.87;;;;;;;17.89;82.25;95899.19;1820574;79;21009;-60
2021/07/27 00:51:00;;;;;;;13.90;7.40;;;;;;;17.92;82.34;95901.75;1820518;79;20988;-60
2021/07/27 00:53:26;;;;;;;10.98;6.87;;;;;;;17.87;81.81;95901.95;1820331;79;20969;-60
2021/07/27 00:55:54;;;;;;;12.55;6.78;;;;;;;17.88;81.83;95894.80;1820764;78;21000;-60
2021/07/27 00:58:20;;;;;;;13.90;7.53;;;;;;;17.88;81.86;95892.13;1819924;78;21594;-60
2021/07/27 01:00:46;;;;;;;13.20;6.62;;;;;;;17.87;81.51;95897.08;1820428;78;20986;-60
2021/07/27 01:03:14;;;;;;;14.40;6.72;;;;;;;17.85;81.59;95893.59;1823015;78;21063;-60
2021/07/27 01:05:41;;;;;;;10.95;6.95;;;;;;;17.85;81.56;95902.47;1823171;78;21439;-60
2021/07/27 01:08:08;;;;;;;13.72;6.60;;;;;;;17.88;82.18;95896.99;1809311;79;21012;-60
2021/07/27 01:10:35;;;;;;;16.82;6.62;;;;;;;17.91;81.55;95894.66;1809487;79;21578;-61
2021/07/27 01:13:04;;;;;;;15.35;6.50;;;;;;;17.91;81.89;95900.86;1809045;79;21016;-60
2021/07/27 01:15:30;;;;;;;12.50;6.45;;;;;;;17.93;82.01;95899.47;1809812;79;21501;-60
2021/07/27 01:18:04;;;;;;;12.10;6.65;;;;;;;17.99;81.94;95895.19;1809341;79;21088;-60
2021/07/27 01:20:46;;;;;;;8.90;6.47;;;;;;;18.03;82.36;95894.61;1809299;79;20989;-60
2021/07/27 01:39:35;;;;;;;14.20;7.37;;;;;;;18.27;82.22;95883.30;1791003;79;21036;-60
2021/07/27 01:44:44;;;;;;;17.52;8.25;;;;;;;18.42;82.19;95888.44;1809683;79;21013;-60
2021/07/27 01:47:07;;;;;;;17.60;8.28;;;;;;;18.38;81.40;95885.91;1809347;79;21479;-60
2021/07/27 01:49:34;;;;;;;14.30;7.70;;;;;;;18.40;81.72;95891.67;1809530;79;20985;-60
2021/07/27 01:52:00;;;;;;;12.60;6.70;;;;;;;18.36;81.86;95894.45;1809522;78;21076;-60
2021/07/27 01:54:40;;;;;;;14.63;5.92;;;;;;;18.39;81.81;95900.13;1809360;79;21515;-60
2021/07/27 01:57:00;;;;;;;14.53;7.12;;;;;;;18.35;81.54;95905.23;1808480;79;21044;-60
2021/07/27 01:59:27;;;;;;;13.18;7.28;;;;;;;18.40;82.22;95912.57;1809279;79;21059;-60
2021/07/27 02:01:57;;;;;;;14.25;8.60;;;;;;;18.51;82.32;95908.08;1809273;79;20989;-60
2021/07/27 02:04:23;;;;;;;15.03;7.50;;;;;;;18.59;82.09;95904.58;1806091;79;21547;-61
2021/07/27 02:06:50;;;;;;;17.70;7.22;;;;;;;18.62;81.73;95902.23;1804123;79;21017;-60
2021/07/27 02:09:16;;;;;;;13.18;7.30;;;;;;;18.66;81.72;95900.70;1781657;79;21012;-60
2021/07/27 02:11:47;;;;;;;15.05;7.62;;;;;;;18.69;81.57;95900.55;1803837;79;21568;-60
2021/07/27 02:14:16;;;;;;;16.65;9.40;;;;;;;18.65;81.61;95902.98;1804043;79;20994;-60
2021/07/27 02:16:43;;;;;;;13.72;8.10;;;;;;;18.68;81.96;95904.66;1803413;79;21092;-60
2021/07/27 02:19:09;;;;;;;19.35;7.67;;;;;;;18.69;81.58;95901.03;1804398;79;21013;-60
2021/07/27 02:21:36;;;;;;;14.05;7.92;;;;;;;18.64;81.00;95903.05;1803858;79;21119;-60
2021/07/27 02:24:04;;;;;;;13.15;7.65;;;;;;;18.57;81.17;95895.76;1803807;79;21009;-60
2021/07/27 02:26:31;;;;;;;11.60;6.92;;;;;;;18.60;81.87;95895.64;1804337;79;21088;-60
2021/07/27 02:28:57;;;;;;;15.38;7.90;;;;;;;18.65;82.20;95897.64;1804093;79;21471;-60
2021/07/27 02:31:36;;;;;;;28.23;11.38;;;;;;;18.65;81.92;95896.75;1804141;79;21514;-60
2021/07/27 02:34:02;;;;;;;45.50;18.37;;;;;;;18.71;81.78;95897.34;1803888;79;21535;-60
2021/07/27 02:36:29;;;;;;;42.80;16.50;;;;;;;18.74;81.97;95900.34;1803615;79;21016;-61
2021/07/27 02:38:55;;;;;;;34.48;12.25;;;;;;;18.70;81.41;95902.78;1804268;79;20977;-60
2021/07/27 02:41:27;;;;;;;21.45;8.35;;;;;;;18.71;81.47;95899.16;1804096;79;20961;-60
2021/07/27 02:43:53;;;;;;;24.23;11.20;;;;;;;18.73;81.89;95895.95;1804087;79;21491;-60
2021/07/27 02:46:20;;;;;;;32.25;14.63;;;;;;;18.75;82.16;95898.09;1804398;79;21198;-60
2021/07/27 02:48:52;;;;;;;28.80;11.80;;;;;;;18.80;82.23;95898.78;1804123;79;21522;-60
2021/07/27 02:51:19;;;;;;;31.75;12.40;;;;;;;18.89;82.13;95899.67;1804517;79;21615;-60
2021/07/27 02:53:45;;;;;;;15.55;6.00;;;;;;;18.92;81.69;95898.66;1804240;79;21458;-60
2021/07/27 02:56:17;;;;;;;12.35;6.58;;;;;;;18.87;81.06;95896.20;1803812;79;21096;-60
2021/07/27 02:58:43;;;;;;;16.23;7.00;;;;;;;18.80;81.63;95890.76;1804117;79;21459;-60
2021/07/27 03:01:10;;;;;;;28.92;11.75;;;;;;;18.81;81.27;95908.52;1804326;79;21017;-60
2021/07/27 03:03:36;;;;;;;19.05;7.83;;;;;;;18.84;81.59;95904.84;1806906;79;21040;-60
2021/07/27 03:06:03;;;;;;;14.60;7.40;;;;;;;18.85;81.63;95895.42;1820063;79;21047;-60
2021/07/27 03:11:15;;;;;;;24.40;11.80;;;;;;;18.87;81.94;95889.52;1820040;79;21553;-60
2021/07/27 03:13:42;;;;;;;24.32;12.40;;;;;;;18.93;81.80;95889.24;1819932;78;21012;-60
2021/07/27 03:16:16;;;;;;;26.95;11.25;;;;;;;18.93;81.28;95890.58;1819951;79;21119;-60
2021/07/27 03:18:47;;;;;;;18.10;9.65;;;;;;;18.90;81.24;95890.73;1820092;79;20973;-61
2021/07/27 03:21:21;;;;;;;14.53;7.60;;;;;;;18.94;81.56;95892.78;1820736;79;21601;-60
2021/07/27 03:23:49;;;;;;;14.75;7.50;;;;;;;18.92;81.31;95892.84;1820281;79;21854;-60
2021/07/27 03:26:17;;;;;;;18.17;8.65;;;;;;;18.90;82.04;95892.51;1820229;79;21039;-60
2021/07/27 03:28:45;;;;;;;17.12;6.70;;;;;;;18.93;81.88;95894.59;1820485;78;21036;-60
2021/07/27 03:31:12;;;;;;;17.17;7.35;;;;;;;18.92;81.44;95894.65;1820012;79;21051;-60
2021/07/27 03:33:39;;;;;;;15.55;7.45;;;;;;;18.87;81.90;95894.00;1820077;79;21064;-60
2021/07/27 03:36:06;;;;;;;13.68;6.58;;;;;;;18.90;81.83;95897.41;1820238;78;21012;-60
2021/07/27 03:38:33;;;;;;;14.80;6.33;;;;;;;18.95;82.06;95896.73;1820612;78;20968;-60
2021/07/27 03:41:10;;;;;;;15.90;5.85;;;;;;;19.08;82.01;95890.81;1820016;78;21541;-60
2021/07/27 03:43:38;;;;;;;14.98;7.28;;;;;;;19.10;81.15;95894.25;1797622;79;21487;-60
2021/07/27 03:46:05;;;;;;;15.15;6.03;;;;;;;18.97;81.11;95892.63;1820448;79;20949;-60
2021/07/27 03:48:32;;;;;;;12.03;5.67;;;;;;;19.03;81.65;95887.87;1819692;78;21051;-60
2021/07/27 03:50:58;;;;;;;14.70;5.50;;;;;;;19.03;81.08;95890.55;1820427;79;20949;-60
2021/07/27 03:53:25;;;;;;;12.23;5.35;;;;;;;19.00;80.79;95891.17;1820290;78;20996;-60
2021/07/27 03:55:52;;;;;;;15.78;7.17;;;;;;;18.93;80.79;95891.92;1820018;79;21008;-60
2021/07/27 03:58:20;;;;;;;17.17;7.05;;;;;;;18.88;80.88;95895.75;1820247;78;20988;-61
2021/07/27 04:00:50;;;;;;;49.90;16.87;;;;;;;18.92;81.64;95887.96;1820141;79;21011;-61
2021/07/27 04:03:17;;;;;;;28.52;11.63;;;;;;;18.99;81.63;95891.61;1820290;79;21063;-60
2021/07/27 04:05:43;;;;;;;34.88;13.75;;;;;;;19.02;81.76;95894.61;1820047;79;21016;-60
2021/07/27 04:08:11;;;;;;;32.38;12.63;;;;;;;19.05;82.07;95899.84;1819859;78;21019;-60
2021/07/27 04:10:38;;;;;;;23.62;9.68;;;;;;;19.10;81.89;95899.16;1820231;78;21012;-61
2021/07/27 04:13:04;;;;;;;18.33;11.53;;;;;;;19.08;81.62;95906.38;1819992;78;21617;-60
2021/07/27 04:15:37;;;;;;;26.02;11.78;;;;;;;19.13;81.71;95911.04;1820110;78;20972;-60
2021/07/27 04:18:03;;;;;;;22.40;9.80;;;;;;;19.18;81.54;95913.50;1820311;79;20973;-61
2021/07/27 04:20:29;;;;;;;15.43;6.65;;;;;;;19.15;81.04;95920.31;1819968;79;21705;-60
2021/07/27 04:22:57;;;;;;;16.87;6.58;;;;;;;19.10;81.25;95909.86;1819715;79;21013;-60
2021/07/27 04:25:23;;;;;;;14.20;6.50;;;;;;;19.02;80.87;95918.68;1820367;79;21522;-60
2021/07/27 04:27:52;;;;;;;17.80;7.90;;;;;;;18.94;79.91;95914.17;1820005;78;21039;-61
2021/07/27 04:30:18;;;;;;;22.45;8.88;;;;;;;19.00;80.16;95915.23;1820190;79;20949;-60
2021/07/27 04:32:45;;;;;;;17.77;8.23;;;;;;;19.08;80.08;95912.20;1820510;78;20957;-60
2021/07/27 04:35:11;;;;;;;13.68;6.20;;;;;;;19.06;80.19;95914.94;1820403;78;20976;-60
2021/07/27 04:37:38;;;;;;;14.83;6.40;;;;;;;19.09;80.28;95917.94;1819750;79;21071;-60
2021/07/27 04:40:08;;;;;;;18.73;9.00;;;;;;;19.14;79.77;95911.42;1820602;79;21004;-60
2021/07/27 04:42:34;;;;;;;18.32;7.53;;;;;;;19.15;79.85;95914.52;1820302;79;21051;-60
2021/07/27 04:45:01;;;;;;;16.73;7.00;;;;;;;19.14;79.94;95922.59;1820184;79;21075;-60
2021/07/27 04:47:28;;;;;;;24.63;9.88;;;;;;;19.18;80.32;95918.85;1820377;79;21075;-61
2021/07/27 04:49:54;;;;;;;23.65;9.43;;;;;;;19.30;80.86;95914.70;1820649;78;20984;-60
2021/07/27 04:52:21;;;;;;;19.30;8.38;;;;;;;19.47;80.48;95910.75;1820113;79;21538;-60
2021/07/27 04:54:55;;;;;;;20.57;8.38;;;;;;;19.67;80.48;95911.14;1820426;79;21015;-60
2021/07/27 04:57:22;;;;;;;17.95;6.60;;;;;;;19.87;80.09;95910.16;1820409;79;21067;-60
2021/07/27 04:59:48;;;;;;;18.85;7.40;;;;;;;20.03;79.76;95909.79;1819944;79;21505;-61
2021/07/27 05:02:14;;;;;;;20.88;8.15;;;;;;;20.05;79.37;95907.02;1819938;78;21020;-61
2021/07/27 05:04:46;;;;;;;15.40;6.97;;;;;;;20.15;79.03;95913.63;1820023;78;21560;-60
2021/07/27 05:07:13;;;;;;;23.83;9.40;;;;;;;20.23;78.92;95904.72;1820433;78;21521;-61
2021/07/27 05:09:40;;;;;;;32.15;11.40;;;;;;;20.39;78.89;95902.13;1820327;79;21517;-61
2021/07/27 05:12:07;;;;;;;15.58;7.47;;;;;;;20.53;78.44;95904.92;1820146;79;20972;-61
2021/07/27 05:14:34;;;;;;;24.67;9.05;;;;;;;20.63;78.59;95908.02;1820375;79;21036;-60
2021/07/27 05:17:11;;;;;;;15.32;7.55;;;;;;;20.66;78.18;95904.30;1820362;79;21031;-61
2021/07/27 05:19:53;;;;;;;12.73;7.08;;;;;;;20.76;78.53;95905.55;1819979;79;21047;-60
2021/07/27 05:22:23;;;;;;;14.55;7.12;;;;;;;20.92;78.30;95909.63;1820465;78;21020;-60
2021/07/27 05:24:54;;;;;;;18.62;7.92;;;;;;;21.02;77.36;95904.62;1820235;79;21459;-62
2021/07/27 05:27:23;;;;;;;23.73;8.50;;;;;;;21.07;76.99;95898.53;1820135;78;20985;-60
2021/07/27 05:29:52;;;;;;;17.87;8.93;;;;;;;21.20;77.13;95898.72;1820286;79;21109;-60
2021/07/27 05:32:19;;;;;;;19.45;9.45;;;;;;;21.36;76.75;95895.55;1820417;78;21521;-60
2021/07/27 05:34:46;;;;;;;23.05;9.53;;;;;;;21.51;76.04;95898.73;1820362;79;21019;-61
2021/07/27 05:37:13;;;;;;;16.48;7.65;;;;;;;21.63;75.43;95896.31;1820254;79;21562;-60
2021/07/27 05:39:40;;;;;;;15.40;7.28;;;;;;;21.65;74.06;95896.62;1820436;78;21043;-61
2021/07/27 05:42:06;;;;;;;14.33;7.53;;;;;;;21.69;74.02;95901.32;1820098;78;21036;-61
2021/07/27 05:44:33;;;;;;;19.50;7.70;;;;;;;21.74;74.67;95901.44;1819926;79;21045;-61
2021/07/27 05:47:00;;;;;;;18.35;7.78;;;;;;;21.80;75.02;95904.27;1820142;79;21083;-60
2021/07/27 05:49:28;;;;;;;14.18;7.05;;;;;;;21.88;73.70;95905.16;1820050;79;21534;-60
2021/07/27 05:51:56;;;;;;;16.62;6.72;;;;;;;21.91;73.69;95905.84;1820343;79;21043;-60
2021/07/27 05:54:24;;;;;;;17.35;6.60;;;;;;;21.97;74.51;95901.47;1820295;79;20999;-61
2021/07/27 05:56:52;;;;;;;14.40;6.25;;;;;;;22.09;74.10;95907.05;1820388;79;20984;-60
2021/07/27 05:59:20;;;;;;;14.63;6.22;;;;;;;22.15;72.70;95903.53;1820211;79;21044;-61
2021/07/27 06:01:48;;;;;;;12.85;6.22;;;;;;;22.22;73.12;95894.64;1820094;79;21079;-60
2021/07/27 06:04:16;;;;;;;16.42;5.90;;;;;;;22.33;73.71;95900.25;1818757;78;21051;-60
2021/07/27 06:06:43;;;;;;;12.95;6.28;;;;;;;22.40;73.68;95904.77;1809538;79;21009;-60
2021/07/27 06:09:11;;;;;;;19.20;6.95;;;;;;;22.46;73.28;95899.89;1808982;79;21056;-60
2021/07/27 06:11:39;;;;;;;18.15;6.85;;;;;;;22.55;73.53;95898.94;1809449;79;21025;-60
2021/07/27 06:14:07;;;;;;;18.45;7.22;;;;;;;22.61;72.73;95893.20;1809421;79;21539;-60
2021/07/27 06:16:39;;;;;;;18.32;7.62;;;;;;;22.62;72.38;95903.84;1809680;78;21008;-60
2021/07/27 06:19:08;;;;;;;19.30;7.42;;;;;;;22.63;72.64;95892.63;1809551;79;21044;-60
2021/07/27 06:21:38;;;;;;;19.27;8.85;;;;;;;22.64;73.38;95893.86;1809369;79;21044;-60
2021/07/27 06:24:06;;;;;;;23.12;8.88;;;;;;;22.70;73.51;95893.95;1809618;78;21005;-60
2021/07/27 06:26:33;;;;;;;14.83;8.03;;;;;;;22.77;72.74;95894.45;1809369;78;21020;-60
2021/07/27 06:29:01;;;;;;;16.05;8.00;;;;;;;22.79;73.13;95894.73;1809309;79;21012;-60
2021/07/27 06:31:28;;;;;;;18.20;8.13;;;;;;;22.77;73.10;95889.93;1809203;79;20996;-60
2021/07/27 06:33:55;;;;;;;18.05;8.85;;;;;;;22.85;73.16;95894.34;1809219;79;21028;-61
2021/07/27 06:36:21;;;;;;;18.90;8.30;;;;;;;23.02;73.31;95896.50;1809130;79;21578;-61
2021/07/27 06:38:48;;;;;;;19.65;8.18;;;;;;;23.23;73.24;95902.34;1809228;79;21000;-61
2021/07/27 06:51:59;;;;;;;16.48;7.08;;;;;;;24.21;68.81;95888.30;1860125;77;22162;-59
2021/07/27 06:54:25;;;;;;;14.63;7.67;;;;;;;23.98;69.10;95894.27;1832453;78;21465;-59
2021/07/27 06:56:56;;;;;;;15.03;7.37;;;;;;;23.88;69.66;95889.61;1832121;78;21539;-59
2021/07/27 06:59:25;;;;;;;15.58;7.53;;;;;;;23.74;70.10;95887.84;1832070;78;21011;-60
2021/07/27 07:01:52;;;;;;;19.37;8.18;;;;;;;23.66;70.72;95879.35;1832457;78;20992;-59
2021/07/27 07:04:19;;;;;;;24.82;8.43;;;;;;;23.62;70.67;95881.40;1832433;78;20998;-59
2021/07/27 07:06:45;;;;;;;16.75;7.78;;;;;;;23.64;71.49;95877.27;1832447;78;21532;-59
2021/07/27 07:09:11;;;;;;;18.73;7.72;;;;;;;23.85;71.89;95870.96;1832220;78;21019;-59
2021/07/27 07:11:38;;;;;;;19.40;8.38;;;;;;;24.00;69.60;95867.23;1832022;78;21505;-59
2021/07/27 07:14:04;;;;;;;15.68;8.08;;;;;;;24.16;70.00;95870.59;1832514;78;21008;-59
2021/07/27 07:16:31;;;;;;;22.65;8.10;;;;;;;24.34;70.16;95869.85;1832434;78;21004;-59
2021/07/27 07:18:57;;;;;;;17.60;7.83;;;;;;;24.51;70.00;95870.53;1831864;78;21059;-59
2021/07/27 07:21:23;;;;;;;15.90;6.83;;;;;;;24.70;69.65;95861.54;1832270;78;21050;-59
2021/07/27 07:23:50;;;;;;;14.25;6.60;;;;;;;24.80;66.51;95866.66;1832637;78;20998;-59
2021/07/27 07:26:16;;;;;;;15.13;7.08;;;;;;;24.93;67.19;95863.95;1832078;78;21038;-59
2021/07/27 07:28:42;;;;;;;13.00;7.05;;;;;;;25.13;67.04;95858.96;1832447;78;21492;-60
2021/07/27 07:31:10;;;;;;;18.07;6.30;;;;;;;25.34;66.05;95856.06;1832064;78;21031;-59
2021/07/27 07:33:37;;;;;;;16.90;6.47;;;;;;;25.57;66.91;95854.86;1832426;78;21015;-59
2021/07/27 07:36:13;;;;;;;19.10;6.80;;;;;;;25.70;63.79;95855.66;1832448;78;21007;-59
2021/07/27 07:38:41;;;;;;;23.18;6.42;;;;;;;25.84;63.26;95859.56;1832298;78;21020;-59
2021/07/27 07:41:09;;;;;;;26.97;7.85;;;;;;;26.06;64.36;95860.69;1831796;78;21513;-59
2021/07/27 07:43:37;;;;;;;22.15;6.72;;;;;;;26.22;63.29;95865.78;1832399;78;20944;-59
2021/07/27 07:46:04;;;;;;;23.27;7.20;;;;;;;26.40;61.89;95858.94;1832128;78;21465;-59
2021/07/27 07:48:30;;;;;;;27.10;7.90;;;;;;;26.58;62.06;95854.47;1832046;78;21012;-59
2021/07/27 07:50:57;;;;;;;22.67;8.40;;;;;;;26.74;61.52;95856.35;1832257;78;21012;-59
2021/07/27 07:53:24;;;;;;;20.27;7.58;;;;;;;26.88;61.43;95858.81;1831328;78;21074;-59
2021/07/27 07:55:50;;;;;;;21.23;8.00;;;;;;;26.97;60.83;95858.59;1831821;78;20995;-59
2021/07/27 07:58:17;;;;;;;20.25;8.03;;;;;;;27.08;61.61;95859.93;1831687;78;21469;-59
2021/07/27 08:00:43;;;;;;;19.98;7.80;;;;;;;27.12;58.71;95861.42;1831439;78;21011;-59
2021/07/27 08:03:10;;;;;;;20.30;7.83;;;;;;;27.19;58.64;95866.75;1831797;78;21019;-59
2021/07/27 08:05:37;;;;;;;21.87;7.50;;;;;;;27.25;57.98;95874.02;1831444;78;21027;-59
2021/07/27 08:08:05;;;;;;;18.42;6.80;;;;;;;27.39;59.01;95866.48;1831266;78;21059;-59
2021/07/27 08:10:33;;;;;;;22.87;7.28;;;;;;;27.53;59.54;95869.41;1831886;78;20972;-59
2021/07/27 08:12:59;;;;;;;18.75;7.22;;;;;;;27.68;58.28;95859.16;1831464;78;21067;-59
2021/07/27 08:15:26;;;;;;;19.50;7.03;;;;;;;27.83;58.63;95859.27;1831788;78;21046;-59
2021/07/27 08:17:54;;;;;;;24.75;7.85;;;;;;;27.82;53.49;95859.39;1831789;78;21059;-59
2021/07/27 08:20:21;;;;;;;23.60;7.53;;;;;;;27.91;54.82;95856.42;1831393;78;21031;-58
2021/07/27 08:22:48;;;;;;;19.87;6.65;;;;;;;27.94;53.19;95852.94;1831665;78;21051;-59
2021/07/27 08:25:16;;;;;;;25.20;7.22;;;;;;;28.03;52.84;95856.75;1831404;78;21048;-59
2021/07/27 08:27:44;;;;;;;17.73;6.67;;;;;;;28.16;55.17;95852.50;1831793;78;20987;-59
2021/07/27 08:30:16;;;;;;;17.32;8.03;;;;;;;28.22;53.29;95856.04;1831353;78;21477;-59
2021/07/27 08:32:46;;;;;;;23.70;7.22;;;;;;;28.35;55.56;95855.38;1831972;78;20975;-59
2021/07/27 08:35:15;;;;;;;22.50;7.35;;;;;;;28.48;55.25;95852.00;1831475;78;21011;-59
2021/07/27 08:37:43;;;;;;;15.83;7.03;;;;;;;28.62;54.95;95855.37;1831859;78;20972;-58
2021/07/27 08:40:11;;;;;;;18.12;7.45;;;;;;;28.72;53.63;95854.94;1831690;78;21070;-59
2021/07/27 08:42:41;;;;;;;17.02;6.95;;;;;;;28.84;54.13;95850.30;1831617;78;21527;-59
2021/07/27 08:45:10;;;;;;;19.25;7.05;;;;;;;28.99;53.80;95847.59;1831410;78;21043;-59
2021/07/27 08:47:43;;;;;;;15.48;6.35;;;;;;;29.13;52.11;95846.37;1831819;78;21473;-59
2021/07/27 08:50:12;;;;;;;19.00;7.45;;;;;;;29.27;52.81;95843.81;1829750;78;21591;-60
2021/07/27 08:52:38;;;;;;;23.40;7.20;;;;;;;29.37;51.67;95848.78;1831697;78;20965;-59
2021/07/27 08:55:07;;;;;;;24.10;7.33;;;;;;;29.48;49.99;95845.97;1794305;78;21573;-59
2021/07/27 08:57:35;;;;;;;13.70;6.70;;;;;;;29.62;49.74;95854.22;1831473;78;21008;-59
2021/07/27 09:00:04;;;;;;;18.85;6.92;;;;;;;29.81;50.54;95856.17;1826830;78;21062;-59
2021/07/27 09:02:31;;;;;;;19.42;7.03;;;;;;;29.93;50.79;95850.94;1831720;78;21027;-59
2021/07/27 09:05:12;;;;;;;15.40;6.85;;;;;;;30.03;45.99;95850.95;1831642;78;21481;-59
2021/07/27 09:07:39;;;;;;;15.15;6.53;;;;;;;30.06;45.36;95853.89;1831641;78;21047;-58
2021/07/27 09:10:21;;;;;;;21.62;7.10;;;;;;;30.11;44.15;95859.26;1831620;78;21466;-59
2021/07/27 09:13:00;;;;;;;20.43;7.08;;;;;;;30.19;44.84;95854.49;1832018;78;20972;-59
2021/07/27 09:15:30;;;;;;;20.77;7.22;;;;;;;30.33;47.19;95855.44;1831741;78;21561;-59
2021/07/27 09:18:15;;;;;;;22.25;7.58;;;;;;;30.37;43.52;95862.33;1831394;78;21054;-59
2021/07/27 09:20:56;;;;;;;17.25;7.83;;;;;;;30.51;46.47;95861.52;1831411;78;21034;-59
2021/07/27 09:23:27;;;;;;;19.12;7.37;;;;;;;30.59;46.20;95869.34;1831692;78;21031;-59
2021/07/27 09:25:58;;;;;;;17.12;7.20;;;;;;;30.65;46.36;95871.13;1831401;78;21027;-59
2021/07/27 09:28:27;;;;;;;20.13;7.10;;;;;;;30.72;46.50;95874.48;1832180;78;21473;-59
2021/07/27 09:31:00;;;;;;;19.85;7.00;;;;;;;30.95;47.46;95883.72;1831567;78;21477;-59
2021/07/27 09:33:32;;;;;;;18.20;6.78;;;;;;;31.10;46.87;95888.17;1831639;78;20980;-59
2021/07/27 09:36:00;;;;;;;21.52;5.67;;;;;;;31.09;44.96;95883.23;1831427;78;21061;-59
2021/07/27 09:38:32;;;;;;;22.82;5.83;;;;;;;31.12;38.38;95878.88;1831591;78;21016;-59
2021/07/27 09:41:04;;;;;;;19.12;5.10;;;;;;;31.09;34.68;95875.05;1829975;78;21489;-59
2021/07/27 09:43:32;;;;;;;16.15;4.95;;;;;;;30.92;35.87;95886.23;1831884;78;21445;-59
2021/07/27 09:46:00;;;;;;;19.23;6.50;;;;;;;30.94;33.52;95867.84;1831402;78;20960;-59
2021/07/27 09:48:30;;;;;;;22.10;6.72;;;;;;;31.15;39.83;95880.44;1831726;78;21461;-59
2021/07/27 09:51:00;;;;;;;13.20;4.50;;;;;;;31.23;40.73;95871.01;1832465;78;21145;-59
2021/07/27 09:53:27;;;;;;;20.95;5.33;;;;;;;31.33;38.19;95873.19;1835022;78;21046;-59
2021/07/27 09:55:54;;;;;;;16.70;4.83;;;;;;;31.40;32.89;95874.34;1830118;78;21019;-59
2021/07/27 09:58:20;;;;;;;19.25;5.25;;;;;;;31.50;37.22;95881.12;1835187;78;21453;-59
2021/07/27 10:01:04;;;;;;;15.95;5.17;;;;;;;31.69;37.32;95881.01;1834606;78;21023;-59
2021/07/27 10:03:39;;;;;;;14.05;4.40;;;;;;;31.55;33.35;95882.90;1835302;78;21023;-59
2021/07/27 10:06:07;;;;;;;15.63;4.40;;;;;;;31.65;34.62;95877.37;1762850;81;21015;-59
2021/07/27 10:08:37;;;;;;;18.15;3.83;;;;;;;31.87;35.52;95869.28;1767867;81;21499;-59
2021/07/27 10:11:14;;;;;;;17.75;4.75;;;;;;;31.98;31.90;95873.69;1795724;80;20981;-59
2021/07/27 10:13:49;;;;;;;16.02;4.35;;;;;;;32.09;34.20;95883.89;1795652;80;21514;-59
2021/07/27 10:16:28;;;;;;;15.03;4.17;;;;;;;32.29;35.24;95878.30;1795476;80;20988;-59
2021/07/27 10:18:54;;;;;;;16.48;4.50;;;;;;;32.13;29.68;95877.64;1795708;80;20965;-59
2021/07/27 10:21:24;;;;;;;17.42;4.53;;;;;;;32.40;34.03;95873.95;1795255;80;21020;-59
2021/07/27 10:23:57;;;;;;;19.48;5.00;;;;;;;32.57;34.19;95879.61;1762113;80;20988;-59
2021/07/27 10:26:32;;;;;;;15.38;4.25;;;;;;;32.51;31.92;95878.37;1795786;80;21032;-59
2021/07/27 10:29:00;;;;;;;19.05;5.00;;;;;;;32.64;34.46;95870.63;1795529;80;21013;-59
2021/07/27 10:31:39;;;;;;;19.62;4.60;;;;;;;32.67;33.94;95887.21;1795516;80;21001;-59
2021/07/27 10:34:10;;;;;;;16.37;4.50;;;;;;;32.54;32.84;95880.27;1795705;80;20984;-59
2021/07/27 10:36:40;;;;;;;16.42;4.67;;;;;;;32.00;29.01;95883.95;1793175;80;21527;-59
2021/07/27 10:39:19;;;;;;;18.65;5.40;;;;;;;32.00;33.65;95874.40;1795938;80;21447;-59
2021/07/27 10:41:51;;;;;;;11.20;4.50;;;;;;;32.21;33.23;95874.98;1795717;80;21471;-59
2021/07/27 10:44:23;;;;;;;15.90;5.70;;;;;;;32.17;32.25;95878.17;1795828;80;21013;-59
2021/07/27 10:46:52;;;;;;;15.48;5.30;;;;;;;32.40;33.61;95872.59;1795612;80;20985;-59
2021/07/27 10:49:27;;;;;;;15.98;5.03;;;;;;;32.47;31.78;95868.22;1795533;80;21439;-59
2021/07/27 10:52:03;;;;;;;16.50;4.60;;;;;;;32.63;35.62;95878.97;1795922;80;20974;-59
2021/07/27 10:54:33;;;;;;;13.55;5.10;;;;;;;32.63;29.83;95880.33;1796339;79;20969;-59
2021/07/27 10:57:05;;;;;;;16.00;4.90;;;;;;;32.28;31.53;95878.81;1795855;79;21044;-59
2021/07/27 10:59:36;;;;;;;18.87;4.62;;;;;;;32.35;32.51;95873.56;1796385;79;20996;-59
2021/07/27 11:02:12;;;;;;;15.30;4.72;;;;;;;32.40;30.41;95882.66;1795862;80;21072;-59
2021/07/27 11:04:39;;;;;;;11.03;5.05;;;;;;;32.18;30.83;95875.78;1796115;80;20997;-59
2021/07/27 11:07:19;;;;;;;20.57;5.35;;;;;;;32.31;33.01;95879.86;1795994;79;21010;-59
2021/07/27 11:09:57;;;;;;;15.88;4.90;;;;;;;32.54;33.32;95883.00;1796085;80;21507;-59
2021/07/27 11:12:34;;;;;;;15.72;5.00;;;;;;;32.65;32.40;95887.88;1796373;79;20973;-59
2021/07/27 11:15:13;;;;;;;12.93;5.33;;;;;;;32.81;33.44;95885.77;1796971;79;21407;-59
2021/07/27 11:17:51;;;;;;;15.60;5.08;;;;;;;33.04;34.48;95883.41;1796091;79;21025;-59
2021/07/27 11:20:25;;;;;;;13.62;5.08;;;;;;;33.27;34.00;95887.86;1796250;80;21024;-59
2021/07/27 11:22:58;;;;;;;18.82;6.12;;;;;;;33.33;32.33;95891.30;1796611;79;21052;-60
2021/07/27 11:25:27;;;;;;;18.55;5.65;;;;;;;33.25;33.16;95892.63;1796190;80;20981;-59
2021/07/27 11:27:55;;;;;;;14.78;5.95;;;;;;;33.43;33.11;95897.51;1796358;80;21049;-59
2021/07/27 11:30:34;;;;;;;19.50;5.60;;;;;;;33.50;33.42;95900.47;1796172;79;21088;-61
2021/07/27 11:33:11;;;;;;;17.35;6.28;;;;;;;33.67;33.69;95900.05;1796507;80;21013;-59
2021/07/27 11:35:53;;;;;;;13.95;6.17;;;;;;;33.87;34.59;95901.53;1792894;80;20997;-59
2021/07/27 11:38:29;;;;;;;14.28;5.78;;;;;;;33.67;33.54;95905.03;1796413;79;20973;-59
2021/07/27 11:41:12;;;;;;;15.70;5.55;;;;;;;33.73;32.17;95909.84;1796509;80;21005;-59
2021/07/27 11:43:41;;;;;;;17.80;5.75;;;;;;;33.57;29.65;95913.36;1786786;80;21503;-59
2021/07/27 11:46:12;;;;;;;21.27;5.37;;;;;;;33.14;30.59;95909.65;1796004;80;20996;-59
2021/07/27 11:48:42;;;;;;;13.70;5.90;;;;;;;32.58;30.80;95905.39;1796211;79;21006;-59
2021/07/27 11:51:09;;;;;;;20.57;5.20;;;;;;;32.61;32.87;95897.38;1796169;80;21009;-59
2021/07/27 11:53:40;;;;;;;18.17;5.55;;;;;;;32.60;31.97;95906.61;1796223;80;20977;-59
2021/07/27 11:56:16;;;;;;;17.20;5.78;;;;;;;32.52;33.06;95913.70;1796609;80;21443;-60
2021/07/27 11:58:46;;;;;;;12.05;5.22;;;;;;;32.50;33.43;95913.52;1796109;80;21494;-60
2021/07/27 12:01:18;;;;;;;15.58;5.12;;;;;;;32.64;34.30;95922.53;1796205;80;21036;-59
2021/07/27 12:03:42;;;;;;;15.58;5.60;;;;;;;32.92;32.50;95927.38;1795746;79;21069;-59
2021/07/27 12:06:11;;;;;;;17.95;5.92;;;;;;;33.02;32.94;95921.86;1796460;79;21008;-59